Decoded Metar for KART (WATERTOWN in NY, USA) (IATA:ART) | Meteo·Mobile Aviation Weather
aviador You're here:

KART Decoded Metar

WATERTOWN in NY, USA
Report Time2018-08-18 04:56:00
UTC Time2018-08-18 05:08:26
Flight Rules mvfr MVFR
Wind050° at 05 kt
W.Decomp.*RWY 07: 5.0 kt HW 0.7 kt LCW
RWY 10: 3.9 kt HW 3.1 kt LCW
W.Rank050° ranks 13
Current wind is below 050° avg. (7.3)
Visibility8047 m
Phenomena:Rain
Mist
Clouds:Few 017 Hf
Broken 110 Hf
Expected CloudBase > 400 ft AGL from Temp-Dew spread
Ceiling11,000 ft
Temp19°C (ISA +5)
Dew Point18°C (94% RH)
QNH1012 hPa
Density Alt1,181 ft
Elevation328 ft
Report Wrong Elevation
Raw Report
KART 180456Z AUTO 05005KT 5SM RA BR FEW017 BKN110 19/18 A2989 RMK
AO2 SLP117 P0003 T01890183 402610189=

Extra information for KART:More info

Metar Taf Metar & Taf Last 4 Metars F.Rules Stats Wind Profile Meteogram Temp Stats Airport Information Weather charts Add Link Nearby VenuesMetar ALERT Operation Metar Decoded Social comments

AIRNAV info for KART